createdAt,value
2023-05-14T00:00:29.595Z,10.51
2023-05-14T00:01:31.280Z,10.49
2023-05-14T00:02:33.125Z,10.50
2023-05-14T00:03:35.535Z,10.50
2023-05-14T00:04:37.545Z,10.48
2023-05-14T00:05:39.414Z,10.49
2023-05-14T00:06:41.208Z,10.46
2023-05-14T00:07:42.793Z,10.46
2023-05-14T00:08:44.604Z,10.46
2023-05-14T00:09:46.360Z,10.46
2023-05-14T00:10:48.117Z,10.45
2023-05-14T00:11:49.837Z,10.45
2023-05-14T00:12:51.728Z,10.43
2023-05-14T00:13:53.445Z,10.42
2023-05-14T00:14:55.115Z,10.41
2023-05-14T00:15:56.747Z,10.40
2023-05-14T00:16:59.695Z,10.40
2023-05-14T00:18:01.449Z,10.39
2023-05-14T00:19:03.256Z,10.39
2023-05-14T00:20:07.286Z,10.37
2023-05-14T00:21:08.994Z,10.35
2023-05-14T00:22:10.988Z,10.33
2023-05-14T00:23:12.811Z,10.31
2023-05-14T00:24:14.986Z,10.31
2023-05-14T00:25:16.559Z,10.31
2023-05-14T00:26:18.464Z,10.30
2023-05-14T00:27:20.084Z,10.28
2023-05-14T00:28:21.831Z,10.27
2023-05-14T00:29:23.586Z,10.25
2023-05-14T00:30:25.655Z,10.23
2023-05-14T00:31:28.528Z,10.21
2023-05-14T00:32:30.265Z,10.19
2023-05-14T00:33:32.393Z,10.17
2023-05-14T00:34:35.722Z,10.16
2023-05-14T00:35:37.416Z,10.15
2023-05-14T00:36:39.116Z,10.16
2023-05-14T00:37:40.855Z,10.14
2023-05-14T00:38:42.534Z,10.12
2023-05-14T00:39:44.218Z,10.12
2023-05-14T00:40:51.142Z,10.10
2023-05-14T00:41:52.802Z,10.10
2023-05-14T00:42:55.848Z,10.08
2023-05-14T00:43:57.481Z,10.06
2023-05-14T00:44:59.105Z,10.04
2023-05-14T00:46:00.944Z,10.03
2023-05-14T00:47:02.942Z,10.01
2023-05-14T00:48:05.042Z,10.01
2023-05-14T00:49:06.863Z,10.01
2023-05-14T00:50:11.047Z,9.99
2023-05-14T00:51:14.836Z,9.99
2023-05-14T00:52:17.408Z,9.98
2023-05-14T00:53:20.649Z,9.96
2023-05-14T00:54:22.918Z,9.94
2023-05-14T00:55:25.389Z,9.92
2023-05-14T00:56:27.755Z,9.91
2023-05-14T00:57:29.471Z,9.89
2023-05-14T00:58:31.671Z,9.89
2023-05-14T00:59:34.181Z,9.88
2023-05-14T01:00:36.565Z,9.87
2023-05-14T01:01:38.250Z,9.86
2023-05-14T01:02:39.972Z,9.84
2023-05-14T01:03:42.678Z,9.85
2023-05-14T01:04:44.816Z,9.83
2023-05-14T01:06:06.629Z,9.84
2023-05-14T01:07:24.546Z,9.84
2023-05-14T01:08:46.769Z,9.82
2023-05-14T01:10:11.804Z,9.78
2023-05-14T01:11:42.348Z,9.77
2023-05-14T01:13:13.058Z,9.73
2023-05-14T01:14:22.760Z,9.70
2023-05-14T01:15:29.381Z,9.71
2023-05-14T01:16:33.789Z,9.70
2023-05-14T01:17:44.890Z,9.71
2023-05-14T01:18:51.244Z,9.71
2023-05-14T01:19:55.130Z,9.70
2023-05-14T01:20:56.810Z,9.70
2023-05-14T01:21:58.618Z,9.69
2023-05-14T01:23:00.288Z,9.67
2023-05-14T01:24:01.947Z,9.66
2023-05-14T01:25:05.074Z,9.67
2023-05-14T01:26:06.909Z,9.65
2023-05-14T01:27:18.049Z,9.62
2023-05-14T01:28:24.831Z,9.60
2023-05-14T01:29:29.276Z,9.58
2023-05-14T01:31:05.975Z,9.56
2023-05-14T01:32:09.732Z,9.52
2023-05-14T01:33:14.214Z,9.51
2023-05-14T01:34:24.215Z,9.48
2023-05-14T01:35:30.369Z,9.47
2023-05-14T01:36:33.484Z,9.46
2023-05-14T01:37:36.477Z,9.44
2023-05-14T01:38:40.031Z,9.44
2023-05-14T01:39:42.615Z,9.44
2023-05-14T01:40:46.158Z,9.43
2023-05-14T01:41:48.906Z,9.42
2023-05-14T01:42:51.946Z,9.42
2023-05-14T01:43:54.308Z,9.40
2023-05-14T01:44:56.245Z,9.41
2023-05-14T01:45:58.084Z,9.43
2023-05-14T01:47:00.267Z,9.43
2023-05-14T01:48:02.253Z,9.46
2023-05-14T01:49:06.105Z,9.44
2023-05-14T01:50:09.914Z,9.46
2023-05-14T01:51:14.164Z,9.48
2023-05-14T01:52:17.075Z,9.47
2023-05-14T01:53:18.891Z,9.47
2023-05-14T01:54:20.655Z,9.47
2023-05-14T01:55:26.306Z,9.45
2023-05-14T01:56:29.612Z,9.45
2023-05-14T01:57:31.629Z,9.43
2023-05-14T01:58:33.514Z,9.41
2023-05-14T01:59:35.657Z,9.40
2023-05-14T02:00:38.308Z,9.39
2023-05-14T02:01:39.993Z,9.39
2023-05-14T02:02:42.053Z,9.37
2023-05-14T02:03:47.260Z,9.36
2023-05-14T02:04:50.933Z,9.35
2023-05-14T02:05:52.760Z,9.34
2023-05-14T02:06:54.514Z,9.33
2023-05-14T02:07:59.128Z,9.30
2023-05-14T02:09:00.810Z,9.28
2023-05-14T02:10:04.938Z,9.27
2023-05-14T02:11:09.570Z,9.26
2023-05-14T02:12:11.807Z,9.25
2023-05-14T02:13:13.524Z,9.23
2023-05-14T02:14:15.777Z,9.24
2023-05-14T02:15:17.468Z,9.23
2023-05-14T02:16:19.339Z,9.23
2023-05-14T02:17:21.642Z,9.22
2023-05-14T02:18:23.456Z,9.22
2023-05-14T02:19:25.093Z,9.23
2023-05-14T02:20:27.174Z,9.20
2023-05-14T02:21:28.888Z,9.22
2023-05-14T02:22:30.577Z,9.21
2023-05-14T02:23:41.165Z,9.21
2023-05-14T02:24:43.884Z,9.19
2023-05-14T02:25:45.463Z,9.19
2023-05-14T02:26:47.350Z,9.17
2023-05-14T02:27:49.550Z,9.17
2023-05-14T02:28:51.366Z,9.16
2023-05-14T02:29:53.747Z,9.14
2023-05-14T02:31:02.059Z,9.12
2023-05-14T02:32:04.020Z,9.10
2023-05-14T02:33:05.848Z,9.08
2023-05-14T02:34:07.708Z,9.07
2023-05-14T02:35:09.912Z,9.05
2023-05-14T02:36:12.334Z,9.04
2023-05-14T02:37:14.039Z,9.04
2023-05-14T02:38:15.757Z,9.03
2023-05-14T02:39:17.353Z,9.02
2023-05-14T02:40:20.722Z,9.02
2023-05-14T02:41:22.471Z,9.00
2023-05-14T02:42:24.307Z,8.97
2023-05-14T02:43:26.610Z,8.95
2023-05-14T02:44:28.384Z,8.94
2023-05-14T02:45:30.256Z,8.94
2023-05-14T02:46:32.446Z,8.92
2023-05-14T02:47:36.910Z,8.92
2023-05-14T02:48:39.682Z,8.92
2023-05-14T02:49:41.563Z,8.91
2023-05-14T02:50:43.488Z,8.91
2023-05-14T02:51:45.049Z,8.89
2023-05-14T02:52:46.849Z,8.88
2023-05-14T02:53:48.846Z,8.88
2023-05-14T02:54:50.633Z,8.86
2023-05-14T02:55:52.295Z,8.88
2023-05-14T02:56:54.136Z,8.88
2023-05-14T02:57:56.802Z,8.89
2023-05-14T02:58:58.577Z,8.88
2023-05-14T03:00:00.568Z,8.88
2023-05-14T03:01:03.339Z,8.86
2023-05-14T03:02:05.860Z,8.85
2023-05-14T03:03:08.535Z,8.84
2023-05-14T03:04:10.682Z,8.85
2023-05-14T03:05:12.614Z,8.82
2023-05-14T03:06:14.374Z,8.83
2023-05-14T03:07:16.064Z,8.83
2023-05-14T03:08:17.696Z,8.82
2023-05-14T03:09:19.930Z,8.82
2023-05-14T03:10:21.972Z,8.82
2023-05-14T03:11:23.945Z,8.81
2023-05-14T03:12:25.787Z,8.83
2023-05-14T03:13:27.723Z,8.82
2023-05-14T03:14:29.395Z,8.83
2023-05-14T03:15:31.221Z,8.82
2023-05-14T03:16:33.074Z,8.80
2023-05-14T03:17:34.824Z,8.79
2023-05-14T03:18:36.883Z,8.77
2023-05-14T03:19:38.699Z,8.76
2023-05-14T03:20:42.651Z,8.72
2023-05-14T03:21:44.525Z,8.70
2023-05-14T03:22:46.620Z,8.68
2023-05-14T03:23:49.306Z,8.66
2023-05-14T03:24:53.757Z,8.63
2023-05-14T03:25:55.507Z,8.62
2023-05-14T03:26:59.169Z,8.60
2023-05-14T03:28:00.758Z,8.60
2023-05-14T03:29:03.889Z,8.58
2023-05-14T03:30:06.460Z,8.58
2023-05-14T03:31:08.584Z,8.57
2023-05-14T03:32:11.410Z,8.54
2023-05-14T03:33:14.085Z,8.54
2023-05-14T03:34:15.724Z,8.54
2023-05-14T03:35:17.552Z,8.53
2023-05-14T03:36:19.300Z,8.53
2023-05-14T03:37:23.196Z,8.52
2023-05-14T03:38:25.036Z,8.54
2023-05-14T03:39:26.752Z,8.54
2023-05-14T03:40:28.530Z,8.54
2023-05-14T03:41:30.208Z,8.55
2023-05-14T03:42:31.782Z,8.53
2023-05-14T03:43:33.524Z,8.53
2023-05-14T03:44:35.731Z,8.53
2023-05-14T03:45:38.911Z,8.53
2023-05-14T03:46:40.720Z,8.52
2023-05-14T03:47:42.506Z,8.52
2023-05-14T03:48:44.524Z,8.52
2023-05-14T03:49:47.078Z,8.51
2023-05-14T03:50:49.851Z,8.51
2023-05-14T03:51:51.535Z,8.50
2023-05-14T03:52:53.527Z,8.47
2023-05-14T03:53:55.435Z,8.47
2023-05-14T03:54:57.141Z,8.45
2023-05-14T03:55:58.786Z,8.44
2023-05-14T03:57:00.559Z,8.45
2023-05-14T03:58:02.677Z,8.45
2023-05-14T03:59:04.387Z,8.47
2023-05-14T04:00:07.533Z,8.53
2023-05-14T04:01:18.729Z,8.63
2023-05-14T04:02:20.526Z,8.74
2023-05-14T04:03:22.311Z,8.82
2023-05-14T04:04:24.274Z,8.92
2023-05-14T04:05:25.950Z,9.01
2023-05-14T04:06:27.710Z,9.10
2023-05-14T04:07:29.993Z,9.17
2023-05-14T04:08:31.772Z,9.24
2023-05-14T04:09:34.974Z,9.31
2023-05-14T04:10:36.821Z,9.37
2023-05-14T04:11:41.141Z,9.43
2023-05-14T04:12:44.952Z,9.47
2023-05-14T04:13:46.697Z,9.54
2023-05-14T04:14:48.375Z,9.56
2023-05-14T04:15:50.276Z,9.61
2023-05-14T04:16:51.856Z,9.64
2023-05-14T04:17:53.654Z,9.66
2023-05-14T04:18:55.332Z,9.67
2023-05-14T04:19:57.047Z,9.68
2023-05-14T04:20:59.181Z,9.67
2023-05-14T04:22:00.756Z,9.66
2023-05-14T04:23:02.794Z,9.64
2023-05-14T04:24:04.682Z,9.65
2023-05-14T04:25:06.880Z,9.69
2023-05-14T04:26:08.955Z,9.69
2023-05-14T04:27:10.676Z,9.72
2023-05-14T04:28:12.358Z,9.75
2023-05-14T04:29:16.278Z,9.77
2023-05-14T04:30:20.050Z,9.77
2023-05-14T04:31:22.371Z,9.77
2023-05-14T04:32:24.598Z,9.79
2023-05-14T04:33:26.196Z,9.81
2023-05-14T04:34:27.811Z,9.83
2023-05-14T04:35:29.469Z,9.85
2023-05-14T04:36:31.731Z,9.86
2023-05-14T04:37:33.524Z,9.85
2023-05-14T04:38:35.205Z,9.84
2023-05-14T04:39:36.830Z,9.84
2023-05-14T04:40:38.563Z,9.85
2023-05-14T04:41:40.751Z,9.87
2023-05-14T04:42:43.818Z,9.88
2023-05-14T04:43:46.819Z,9.90
2023-05-14T04:44:48.676Z,9.92
2023-05-14T04:45:51.608Z,9.94
2023-05-14T04:46:53.450Z,9.95
2023-05-14T04:47:55.145Z,9.98
2023-05-14T04:48:56.949Z,10.01
2023-05-14T04:49:59.007Z,10.03
2023-05-14T04:51:01.161Z,10.05
2023-05-14T04:52:02.757Z,10.09
2023-05-14T04:53:04.417Z,10.09
2023-05-14T04:54:06.274Z,10.10
2023-05-14T04:55:08.476Z,10.10
2023-05-14T04:56:10.908Z,10.13
2023-05-14T04:57:12.652Z,10.13
2023-05-14T04:58:14.477Z,10.15
2023-05-14T04:59:16.506Z,10.17
2023-05-14T05:00:19.264Z,10.18
2023-05-14T05:01:22.211Z,10.21
2023-05-14T05:02:26.259Z,10.23
2023-05-14T05:03:27.911Z,10.26
2023-05-14T05:04:29.767Z,10.30
2023-05-14T05:05:31.471Z,10.34
2023-05-14T05:06:33.191Z,10.37
2023-05-14T05:07:35.163Z,10.42
2023-05-14T05:08:37.028Z,10.46
2023-05-14T05:09:38.941Z,10.50
2023-05-14T05:10:40.615Z,10.56
2023-05-14T05:11:42.332Z,10.60
2023-05-14T05:12:44.143Z,10.69
2023-05-14T05:13:46.117Z,10.75
2023-05-14T05:14:47.749Z,10.81
2023-05-14T05:15:49.576Z,10.87
2023-05-14T05:16:51.722Z,10.93
2023-05-14T05:17:53.617Z,11.00
2023-05-14T05:18:55.393Z,11.06
2023-05-14T05:19:57.096Z,11.15
2023-05-14T05:20:59.166Z,11.25
2023-05-14T05:22:01.042Z,11.33
2023-05-14T05:23:02.659Z,11.40
2023-05-14T05:24:04.615Z,11.48
2023-05-14T05:25:06.578Z,11.55
2023-05-14T05:26:08.242Z,11.62
2023-05-14T05:27:10.118Z,11.69
2023-05-14T05:28:11.736Z,11.78
2023-05-14T05:29:13.929Z,11.87
2023-05-14T05:30:15.752Z,11.96
2023-05-14T05:31:19.693Z,12.01
2023-05-14T05:32:21.885Z,12.07
2023-05-14T05:33:23.642Z,12.14
2023-05-14T05:34:25.325Z,12.23
2023-05-14T05:35:26.956Z,12.30
2023-05-14T05:36:28.754Z,12.37
2023-05-14T05:37:30.893Z,12.42
2023-05-14T05:38:32.895Z,12.47
2023-05-14T05:39:34.917Z,12.49
2023-05-14T05:40:36.874Z,12.49
2023-05-14T05:41:39.075Z,12.51
2023-05-14T05:42:41.396Z,12.53
2023-05-14T05:43:43.437Z,12.56
2023-05-14T05:44:45.254Z,12.60
2023-05-14T05:45:46.921Z,12.69
2023-05-14T05:46:48.627Z,12.78
2023-05-14T05:47:50.538Z,12.84
2023-05-14T05:48:53.448Z,12.94
2023-05-14T05:49:55.042Z,13.03
2023-05-14T05:50:56.821Z,13.10
2023-05-14T05:51:58.580Z,13.16
2023-05-14T05:53:00.959Z,13.24
2023-05-14T05:54:02.587Z,13.31
2023-05-14T05:55:04.433Z,13.38
2023-05-14T05:56:06.791Z,13.46
2023-05-14T05:57:08.664Z,13.52
2023-05-14T05:58:10.593Z,13.59
2023-05-14T05:59:12.404Z,13.60
2023-05-14T06:00:14.672Z,13.66
2023-05-14T06:01:16.421Z,13.73
2023-05-14T06:02:18.890Z,13.78
2023-05-14T06:03:22.076Z,13.90
2023-05-14T06:04:23.725Z,13.98
2023-05-14T06:05:25.645Z,14.01
2023-05-14T06:06:27.388Z,14.08
2023-05-14T06:07:29.062Z,14.15
2023-05-14T06:08:31.615Z,14.20
2023-05-14T06:09:33.477Z,14.28
2023-05-14T06:10:36.212Z,14.34
2023-05-14T06:11:39.945Z,14.42
2023-05-14T06:12:41.711Z,14.52
2023-05-14T06:13:43.353Z,14.58
2023-05-14T06:14:45.054Z,14.66
2023-05-14T06:15:47.525Z,14.73
2023-05-14T06:16:49.281Z,14.81
2023-05-14T06:17:51.065Z,14.93
2023-05-14T06:18:53.238Z,15.04
2023-05-14T06:19:54.895Z,15.16
2023-05-14T06:20:57.237Z,15.26
2023-05-14T06:21:59.276Z,15.37
2023-05-14T06:23:00.981Z,15.47
2023-05-14T06:24:02.835Z,15.55
2023-05-14T06:25:04.792Z,15.62
2023-05-14T06:26:06.424Z,15.71
2023-05-14T06:27:08.069Z,15.80
2023-05-14T06:28:09.686Z,15.86
2023-05-14T06:29:11.339Z,15.88
2023-05-14T06:30:13.654Z,15.93
2023-05-14T06:31:15.281Z,15.95
2023-05-14T06:32:17.597Z,15.99
2023-05-14T06:33:21.218Z,16.03
2023-05-14T06:34:22.831Z,16.08
2023-05-14T06:35:24.620Z,16.14
2023-05-14T06:36:26.127Z,16.17
2023-05-14T06:37:27.706Z,16.19
2023-05-14T06:38:29.388Z,16.22
2023-05-14T06:39:31.007Z,16.25
2023-05-14T06:40:32.604Z,16.29
2023-05-14T06:41:34.900Z,16.34
2023-05-14T06:42:36.537Z,16.40
2023-05-14T06:43:39.614Z,16.46
2023-05-14T06:44:41.169Z,16.53
2023-05-14T06:45:42.734Z,16.57
2023-05-14T06:46:44.343Z,16.63
2023-05-14T06:47:46.057Z,16.69
2023-05-14T06:48:47.699Z,16.76
2023-05-14T06:49:49.316Z,16.83
2023-05-14T06:50:50.990Z,16.88
2023-05-14T06:51:52.628Z,16.94
2023-05-14T06:52:54.207Z,17.01
2023-05-14T06:53:56.229Z,17.07
2023-05-14T06:54:57.833Z,17.10
2023-05-14T06:55:59.594Z,17.12
2023-05-14T06:57:01.260Z,17.16
2023-05-14T06:58:02.794Z,17.18
2023-05-14T06:59:04.379Z,17.17
2023-05-14T07:00:08.562Z,17.17
2023-05-14T07:01:10.640Z,17.19
2023-05-14T07:02:12.367Z,17.22
2023-05-14T07:03:16.380Z,17.26
2023-05-14T07:04:20.331Z,17.29
2023-05-14T07:05:21.983Z,17.30
2023-05-14T07:06:23.992Z,17.29
2023-05-14T07:07:25.649Z,17.31
2023-05-14T07:08:27.216Z,17.35
2023-05-14T07:09:28.938Z,17.37
2023-05-14T07:10:30.889Z,17.43
2023-05-14T07:11:32.620Z,17.48
2023-05-14T07:12:34.258Z,17.51
2023-05-14T07:13:36.263Z,17.53
2023-05-14T07:14:37.911Z,17.57
2023-05-14T07:15:39.574Z,17.63
2023-05-14T07:16:42.194Z,17.67
2023-05-14T07:17:43.832Z,17.70
2023-05-14T07:18:45.811Z,17.77
2023-05-14T07:19:47.589Z,17.84
2023-05-14T07:20:49.374Z,17.90
2023-05-14T07:21:51.049Z,17.94
2023-05-14T07:22:53.061Z,17.94
2023-05-14T07:23:54.804Z,18.00
2023-05-14T07:24:56.402Z,18.06
2023-05-14T07:25:57.990Z,18.12
2023-05-14T07:27:00.848Z,18.16
2023-05-14T07:28:02.463Z,18.17
2023-05-14T07:29:04.327Z,18.19
2023-05-14T07:30:07.354Z,18.24
2023-05-14T07:31:09.286Z,18.30
2023-05-14T07:32:12.222Z,18.34
2023-05-14T07:33:15.170Z,18.40
2023-05-14T07:34:16.839Z,18.43
2023-05-14T07:35:18.559Z,18.51
2023-05-14T07:36:20.200Z,18.54
2023-05-14T07:37:24.184Z,18.60
2023-05-14T07:38:25.964Z,18.66
2023-05-14T07:39:27.661Z,18.71
2023-05-14T07:40:29.300Z,18.76
2023-05-14T07:41:30.849Z,18.81
2023-05-14T07:42:36.513Z,18.81
2023-05-14T07:43:40.376Z,18.83
2023-05-14T07:44:41.948Z,18.86
2023-05-14T07:45:43.831Z,18.92
2023-05-14T07:46:45.501Z,18.97
2023-05-14T07:47:47.305Z,18.98
2023-05-14T07:48:48.974Z,18.98
2023-05-14T07:49:54.503Z,18.94
2023-05-14T07:50:56.199Z,18.93
2023-05-14T07:51:57.774Z,18.96
2023-05-14T07:52:59.610Z,19.01
2023-05-14T07:54:01.304Z,19.05
2023-05-14T07:55:04.049Z,19.05
2023-05-14T07:56:06.050Z,19.04
2023-05-14T07:57:07.642Z,19.08
2023-05-14T07:58:09.339Z,19.12
2023-05-14T07:59:10.984Z,19.19
2023-05-14T08:00:13.217Z,19.23
2023-05-14T08:01:14.789Z,19.25
2023-05-14T08:02:16.965Z,19.26
2023-05-14T08:03:19.179Z,19.29
2023-05-14T08:04:22.878Z,19.35
2023-05-14T08:05:24.638Z,19.39
2023-05-14T08:06:27.625Z,19.44
2023-05-14T08:07:30.080Z,19.45
2023-05-14T08:08:31.709Z,19.44
2023-05-14T08:09:33.396Z,19.47
2023-05-14T08:10:35.047Z,19.51
2023-05-14T08:11:36.720Z,19.53
2023-05-14T08:12:38.983Z,19.53
2023-05-14T08:13:40.792Z,19.55
2023-05-14T08:14:42.369Z,19.59
2023-05-14T08:15:44.012Z,19.65
2023-05-14T08:16:45.612Z,19.70
2023-05-14T08:17:47.269Z,19.76
2023-05-14T08:18:49.109Z,19.79
2023-05-14T08:19:50.739Z,19.82
2023-05-14T08:20:52.535Z,19.86
2023-05-14T08:21:54.451Z,19.88
2023-05-14T08:22:56.937Z,19.86
2023-05-14T08:23:58.817Z,19.88
2023-05-14T08:25:01.608Z,19.83
2023-05-14T08:26:04.346Z,19.83
2023-05-14T08:27:06.493Z,19.80
2023-05-14T08:28:08.857Z,19.84
2023-05-14T08:29:11.533Z,19.88
2023-05-14T08:30:14.327Z,19.94
2023-05-14T08:31:16.122Z,19.99
2023-05-14T08:32:23.303Z,20.06
2023-05-14T08:33:25.219Z,20.15
2023-05-14T08:34:27.995Z,20.19
2023-05-14T08:35:29.746Z,20.23
2023-05-14T08:36:31.584Z,20.25
2023-05-14T08:37:33.294Z,20.26
2023-05-14T08:38:34.972Z,20.28
2023-05-14T08:39:36.497Z,20.26
2023-05-14T08:40:38.179Z,20.24
2023-05-14T08:41:41.074Z,20.28
2023-05-14T08:42:44.977Z,20.31
2023-05-14T08:44:12.407Z,20.35
2023-05-14T08:45:25.695Z,20.35
2023-05-14T08:46:30.677Z,20.29
2023-05-14T08:47:33.691Z,20.27
2023-05-14T08:48:36.153Z,20.28
2023-05-14T08:49:41.689Z,20.28
2023-05-14T08:50:44.038Z,20.31
2023-05-14T08:51:48.561Z,20.36
2023-05-14T08:52:51.040Z,20.36
2023-05-14T08:53:52.712Z,20.42
2023-05-14T08:54:55.810Z,20.48
2023-05-14T08:55:58.470Z,20.52
2023-05-14T08:57:00.155Z,20.52
2023-05-14T08:58:01.819Z,20.57
2023-05-14T08:59:03.615Z,20.63
2023-05-14T09:00:08.748Z,20.71
2023-05-14T09:01:10.452Z,20.75
2023-05-14T09:02:15.019Z,20.79
2023-05-14T09:03:18.653Z,20.75
2023-05-14T09:04:23.103Z,20.74
2023-05-14T09:05:25.249Z,20.66
2023-05-14T09:06:27.636Z,20.62
2023-05-14T09:07:29.291Z,20.66
2023-05-14T09:08:31.358Z,20.66
2023-05-14T09:09:33.239Z,20.65
2023-05-14T09:10:34.844Z,20.57
2023-05-14T09:11:43.585Z,20.60
2023-05-14T09:12:45.097Z,20.60
2023-05-14T09:13:46.670Z,20.61
2023-05-14T09:14:49.929Z,20.65
2023-05-14T09:15:52.743Z,20.71
2023-05-14T09:16:55.436Z,20.72
2023-05-14T09:17:57.163Z,20.73
2023-05-14T09:18:59.071Z,20.74
2023-05-14T09:20:01.399Z,20.77
2023-05-14T09:21:04.820Z,20.80
2023-05-14T09:22:09.998Z,20.85
2023-05-14T09:23:11.558Z,20.92
2023-05-14T09:24:26.576Z,20.87
2023-05-14T09:25:31.881Z,20.89
2023-05-14T09:26:34.716Z,20.94
2023-05-14T09:27:36.864Z,21.01
2023-05-14T09:28:44.119Z,21.10
2023-05-14T09:29:45.725Z,21.17
2023-05-14T09:30:52.082Z,21.21
2023-05-14T09:31:55.143Z,21.25
2023-05-14T09:32:56.796Z,21.28
2023-05-14T09:33:59.662Z,21.31
2023-05-14T09:35:19.046Z,21.28
2023-05-14T09:36:20.698Z,21.34
2023-05-14T09:37:22.341Z,21.39
2023-05-14T09:38:28.795Z,21.43
2023-05-14T09:39:31.158Z,21.50
2023-05-14T09:40:32.737Z,21.54
2023-05-14T09:41:34.863Z,21.55
2023-05-14T09:42:36.533Z,21.56
2023-05-14T09:43:38.446Z,21.62
2023-05-14T09:44:40.085Z,21.69
2023-05-14T09:45:41.675Z,21.74
2023-05-14T09:46:43.337Z,21.79
2023-05-14T09:47:45.511Z,21.83
2023-05-14T09:48:47.345Z,21.89
2023-05-14T09:49:49.354Z,21.89
2023-05-14T09:50:52.253Z,21.89
2023-05-14T09:51:54.013Z,21.85
2023-05-14T09:52:56.149Z,21.91
2023-05-14T09:53:58.051Z,21.99
2023-05-14T09:55:00.591Z,21.94
2023-05-14T09:56:02.126Z,21.87
2023-05-14T09:57:03.871Z,21.80
2023-05-14T09:58:06.114Z,21.67
2023-05-14T09:59:07.727Z,21.69
2023-05-14T10:00:10.199Z,21.71
2023-05-14T10:01:12.661Z,21.76
2023-05-14T10:02:26.439Z,21.77
2023-05-14T10:03:30.031Z,21.87
2023-05-14T10:04:36.182Z,21.93
2023-05-14T10:05:40.568Z,22.04
2023-05-14T10:06:46.690Z,22.13
2023-05-14T10:07:51.382Z,22.17
2023-05-14T10:09:01.313Z,22.23
2023-05-14T10:10:06.732Z,22.19
2023-05-14T10:11:24.940Z,22.15
2023-05-14T10:12:32.605Z,22.21
2023-05-14T10:13:41.488Z,22.27
2023-05-14T10:14:49.745Z,22.37
2023-05-14T10:16:05.296Z,22.44
2023-05-14T10:17:07.868Z,22.51
2023-05-14T10:18:16.130Z,22.52
2023-05-14T10:19:21.055Z,22.51
2023-05-14T10:20:25.187Z,22.60
2023-05-14T10:21:31.997Z,22.65
2023-05-14T10:22:35.147Z,22.69
2023-05-14T10:23:38.176Z,22.72
2023-05-14T10:24:40.483Z,22.62
2023-05-14T10:25:42.487Z,22.50
2023-05-14T10:26:45.064Z,22.47
2023-05-14T10:27:46.879Z,22.49
2023-05-14T10:28:48.988Z,22.49
2023-05-14T10:29:55.753Z,22.54
2023-05-14T10:30:59.613Z,22.60
2023-05-14T10:32:08.965Z,22.63
2023-05-14T10:33:16.490Z,22.63
2023-05-14T10:34:44.154Z,22.67
2023-05-14T10:36:05.858Z,22.60
2023-05-14T10:37:23.161Z,22.62
2023-05-14T10:38:28.769Z,22.62
2023-05-14T10:39:49.568Z,22.53
2023-05-14T10:40:54.084Z,22.57
2023-05-14T10:41:55.948Z,22.58
2023-05-14T10:42:59.544Z,22.62
2023-05-14T10:44:09.345Z,22.64
2023-05-14T10:45:12.710Z,22.66
2023-05-14T10:46:14.831Z,22.71
2023-05-14T10:47:17.861Z,22.72
2023-05-14T10:48:20.669Z,22.71
2023-05-14T10:49:35.593Z,22.64
2023-05-14T10:50:44.086Z,22.57
2023-05-14T10:51:49.505Z,22.52
2023-05-14T10:52:52.016Z,22.43
2023-05-14T10:53:54.951Z,22.41
2023-05-14T10:55:00.054Z,22.41
2023-05-14T10:56:08.423Z,22.40
2023-05-14T10:57:12.626Z,22.38
2023-05-14T10:58:15.512Z,22.33
2023-05-14T10:59:17.700Z,22.36
2023-05-14T11:00:19.684Z,22.34
2023-05-14T11:01:24.280Z,22.35
2023-05-14T11:02:33.688Z,22.41
2023-05-14T11:03:46.681Z,22.41
2023-05-14T11:05:00.627Z,22.38
2023-05-14T11:06:04.166Z,22.35
2023-05-14T11:07:06.001Z,22.37
2023-05-14T11:08:08.867Z,22.39
2023-05-14T11:09:13.860Z,22.38
2023-05-14T11:10:30.498Z,22.39
2023-05-14T11:11:32.453Z,22.39
2023-05-14T11:12:38.776Z,22.44
2023-05-14T11:13:41.392Z,22.48
2023-05-14T11:14:43.069Z,22.47
2023-05-14T11:15:48.188Z,22.50
2023-05-14T11:16:50.450Z,22.54
2023-05-14T11:17:53.706Z,22.56
2023-05-14T11:19:03.493Z,22.64
2023-05-14T11:20:06.551Z,22.71
2023-05-14T11:21:08.251Z,22.81
2023-05-14T11:22:12.561Z,22.85
2023-05-14T11:23:14.605Z,22.88
2023-05-14T11:24:16.249Z,22.86
2023-05-14T11:25:18.944Z,22.81
2023-05-14T11:26:21.653Z,22.80
2023-05-14T11:27:24.030Z,22.81
2023-05-14T11:28:26.693Z,22.81
2023-05-14T11:29:28.509Z,22.80
2023-05-14T11:30:31.320Z,22.73
2023-05-14T11:31:33.036Z,22.71
2023-05-14T11:32:35.288Z,22.69
2023-05-14T11:33:37.155Z,22.64
2023-05-14T11:34:39.245Z,22.61
2023-05-14T11:35:42.862Z,22.62
2023-05-14T11:36:44.850Z,22.62
2023-05-14T11:37:52.574Z,22.64
2023-05-14T11:38:54.253Z,22.68
2023-05-14T11:39:56.512Z,22.70
2023-05-14T11:40:59.721Z,22.72
2023-05-14T11:42:09.872Z,22.76
2023-05-14T11:43:11.457Z,22.78
2023-05-14T11:44:13.490Z,22.80
2023-05-14T11:45:26.324Z,22.90
2023-05-14T11:46:30.107Z,22.93
2023-05-14T11:47:31.935Z,22.87
2023-05-14T11:48:34.347Z,22.84
2023-05-14T11:49:37.756Z,22.83
2023-05-14T11:50:40.456Z,22.79
2023-05-14T11:51:42.005Z,22.76
2023-05-14T11:52:43.748Z,22.72
2023-05-14T11:53:46.376Z,22.67
2023-05-14T11:54:50.700Z,22.63
2023-05-14T11:55:54.445Z,22.59
2023-05-14T11:56:56.843Z,22.53
2023-05-14T11:57:58.929Z,22.50
2023-05-14T11:59:00.841Z,22.40
2023-05-14T12:00:02.487Z,22.30
2023-05-14T12:01:06.418Z,22.18
2023-05-14T12:02:16.128Z,22.11
2023-05-14T12:03:25.688Z,22.03
2023-05-14T12:04:29.363Z,21.95
2023-05-14T12:05:31.103Z,21.91
2023-05-14T12:06:32.721Z,21.87
2023-05-14T12:07:34.661Z,21.87
2023-05-14T12:08:37.592Z,21.85
2023-05-14T12:09:44.206Z,21.69
2023-05-14T12:10:47.183Z,21.60
2023-05-14T12:11:51.026Z,21.56
2023-05-14T12:12:52.684Z,21.53
2023-05-14T12:13:54.444Z,21.45
2023-05-14T12:14:56.047Z,21.43
2023-05-14T12:16:00.796Z,21.37
2023-05-14T12:17:02.497Z,21.39
2023-05-14T12:18:22.863Z,21.38
2023-05-14T12:19:25.954Z,21.41
2023-05-14T12:20:29.640Z,21.43
2023-05-14T12:21:31.960Z,21.46
2023-05-14T12:22:36.400Z,21.48
2023-05-14T12:23:39.411Z,21.52
2023-05-14T12:24:41.186Z,21.55
2023-05-14T12:25:51.550Z,21.56
2023-05-14T12:26:55.391Z,21.61
2023-05-14T12:27:56.997Z,21.64
2023-05-14T12:29:03.604Z,21.68
2023-05-14T12:30:20.728Z,21.72
2023-05-14T12:31:30.183Z,21.74
2023-05-14T12:32:33.505Z,21.74
2023-05-14T12:33:35.461Z,21.76
2023-05-14T12:34:37.905Z,21.78
2023-05-14T12:35:40.247Z,21.80
2023-05-14T12:36:42.246Z,21.84
2023-05-14T12:37:43.978Z,21.89
2023-05-14T12:38:45.705Z,21.92
2023-05-14T12:39:47.342Z,21.89
2023-05-14T12:40:49.111Z,21.90
2023-05-14T12:41:50.680Z,21.82
2023-05-14T12:42:52.757Z,21.86
2023-05-14T12:43:55.331Z,21.89
2023-05-14T12:44:56.874Z,21.85
2023-05-14T12:45:58.640Z,21.86
2023-05-14T12:47:00.340Z,21.89
2023-05-14T12:48:02.085Z,21.92
2023-05-14T12:49:04.021Z,21.92
2023-05-14T12:50:06.517Z,21.94
2023-05-14T12:51:08.454Z,21.93
2023-05-14T12:52:22.839Z,21.87
2023-05-14T12:53:31.646Z,21.87
2023-05-14T12:54:33.576Z,21.85
2023-05-14T12:55:35.269Z,21.85
2023-05-14T12:56:38.747Z,21.87
2023-05-14T12:57:40.579Z,21.89
2023-05-14T12:58:42.296Z,21.88
2023-05-14T12:59:43.950Z,21.89
2023-05-14T13:00:45.594Z,21.93
2023-05-14T13:01:47.418Z,21.93
2023-05-14T13:02:49.512Z,21.96
2023-05-14T13:03:51.309Z,22.03
2023-05-14T13:04:55.308Z,22.08
2023-05-14T13:05:57.272Z,22.12
2023-05-14T13:06:59.245Z,22.15
2023-05-14T13:08:02.284Z,22.21
2023-05-14T13:09:04.181Z,22.25
2023-05-14T13:10:06.626Z,22.32
2023-05-14T13:11:08.519Z,22.36
2023-05-14T13:12:10.117Z,22.44
2023-05-14T13:13:12.390Z,22.53
2023-05-14T13:14:13.963Z,22.63
2023-05-14T13:15:16.025Z,22.65
2023-05-14T13:16:17.734Z,22.72
2023-05-14T13:17:19.528Z,22.71
2023-05-14T13:18:21.400Z,22.76
2023-05-14T13:19:22.998Z,22.79
2023-05-14T13:20:27.376Z,22.85
2023-05-14T13:21:29.008Z,22.78
2023-05-14T13:22:30.934Z,22.78
2023-05-14T13:23:32.592Z,22.77
2023-05-14T13:24:34.915Z,22.77
2023-05-14T13:25:36.638Z,22.84
2023-05-14T13:26:40.402Z,22.85
2023-05-14T13:27:41.969Z,22.92
2023-05-14T13:28:43.683Z,22.98
2023-05-14T13:29:45.343Z,23.06
2023-05-14T13:31:07.440Z,23.07
2023-05-14T13:32:09.189Z,23.00
2023-05-14T13:33:10.810Z,22.83
2023-05-14T13:34:13.068Z,22.80
2023-05-14T13:35:14.852Z,22.79
2023-05-14T13:36:16.773Z,22.79
2023-05-14T13:37:18.535Z,22.77
2023-05-14T13:38:20.161Z,22.79
2023-05-14T13:39:22.744Z,22.80
2023-05-14T13:40:24.693Z,22.82
2023-05-14T13:41:26.449Z,22.85